createdAt,value
2018-06-04T00:01:54.253Z,17.70
2018-06-04T00:04:22.785Z,17.70
2018-06-04T00:06:51.201Z,17.70
2018-06-04T00:09:19.603Z,17.70
2018-06-04T00:11:48.008Z,17.60
2018-06-04T00:14:16.382Z,17.60
2018-06-04T00:16:44.909Z,17.70
2018-06-04T00:19:13.329Z,17.70
2018-06-04T00:21:41.666Z,17.70
2018-06-04T00:24:10.086Z,17.60
2018-06-04T00:26:38.531Z,17.60
2018-06-04T00:29:06.950Z,17.70
2018-06-04T00:31:35.338Z,17.60
2018-06-04T00:34:03.748Z,17.70
2018-06-04T00:36:32.181Z,17.70
2018-06-04T00:39:00.556Z,17.60
2018-06-04T00:41:29.008Z,17.60
2018-06-04T00:43:57.829Z,17.70
2018-06-04T00:46:26.191Z,17.80
2018-06-04T00:48:54.591Z,17.70
2018-06-04T00:51:23.024Z,17.90
2018-06-04T00:53:51.411Z,18.00
2018-06-04T00:56:21.030Z,18.00
2018-06-04T00:58:49.475Z,18.10
2018-06-04T01:01:17.858Z,18.20
2018-06-04T01:03:46.321Z,18.20
2018-06-04T01:06:14.731Z,18.30
2018-06-04T01:08:43.271Z,18.40
2018-06-04T01:11:11.653Z,18.60
2018-06-04T01:13:40.052Z,18.60
2018-06-04T01:16:08.482Z,18.60
2018-06-04T01:18:36.900Z,18.70
2018-06-04T01:21:05.435Z,18.90
2018-06-04T01:23:34.733Z,19.00
2018-06-04T01:26:03.213Z,18.90
2018-06-04T01:28:31.680Z,19.00
2018-06-04T01:31:00.090Z,19.00
2018-06-04T01:33:28.568Z,19.10
2018-06-04T01:35:57.118Z,19.10
2018-06-04T01:38:25.543Z,19.10
2018-06-04T01:40:53.896Z,19.10
2018-06-04T01:43:22.426Z,19.20
2018-06-04T01:45:50.905Z,19.10
2018-06-04T01:48:19.309Z,19.10
2018-06-04T01:50:47.761Z,19.20
2018-06-04T01:53:16.138Z,19.20
2018-06-04T01:55:44.491Z,19.10
2018-06-04T01:58:12.964Z,19.00
2018-06-04T02:00:42.783Z,19.00
2018-06-04T02:03:11.161Z,18.90
2018-06-04T02:05:39.530Z,18.80
2018-06-04T02:08:08.500Z,18.70
2018-06-04T02:10:36.947Z,18.60
2018-06-04T02:13:05.442Z,18.60
2018-06-04T02:15:33.870Z,18.60
2018-06-04T02:18:08.675Z,18.60
2018-06-04T02:20:37.157Z,18.50
2018-06-04T02:23:05.554Z,18.40
2018-06-04T02:25:33.901Z,18.30
2018-06-04T02:28:02.315Z,18.40
2018-06-04T02:30:30.690Z,18.40
2018-06-04T02:32:59.145Z,18.30
2018-06-04T02:35:27.674Z,18.30
2018-06-04T02:37:56.152Z,18.20
2018-06-04T02:40:24.574Z,18.20
2018-06-04T02:42:52.970Z,18.20
2018-06-04T02:45:21.406Z,18.10
2018-06-04T02:47:51.076Z,18.00
2018-06-04T02:50:19.536Z,17.90
2018-06-04T02:52:47.949Z,17.90
2018-06-04T02:55:16.547Z,17.90
2018-06-04T02:57:44.882Z,17.90
2018-06-04T03:00:13.323Z,17.90
2018-06-04T03:02:41.724Z,18.10
2018-06-04T03:05:10.092Z,18.00
2018-06-04T03:07:38.511Z,18.10
2018-06-04T03:10:06.909Z,18.00
2018-06-04T03:12:35.306Z,17.90
2018-06-04T03:15:03.731Z,17.80
2018-06-04T03:17:32.103Z,17.90
2018-06-04T03:20:00.573Z,17.80
2018-06-04T03:22:28.995Z,17.70
2018-06-04T03:24:57.512Z,17.70
2018-06-04T03:27:25.904Z,17.80
2018-06-04T03:29:54.337Z,17.90
2018-06-04T03:32:22.785Z,17.80
2018-06-04T03:34:51.231Z,17.80
2018-06-04T03:37:19.665Z,17.70
2018-06-04T03:39:48.100Z,17.70
2018-06-04T03:42:16.546Z,17.60
2018-06-04T03:44:44.975Z,17.60
2018-06-04T03:47:13.488Z,17.60
2018-06-04T03:49:41.970Z,17.60
2018-06-04T03:52:10.410Z,17.60
2018-06-04T03:54:38.876Z,17.60
2018-06-04T03:57:07.277Z,17.60
2018-06-04T03:59:35.822Z,17.50
2018-06-04T04:02:04.250Z,17.50
2018-06-04T04:04:32.684Z,17.50
2018-06-04T04:07:01.106Z,17.50
2018-06-04T04:09:29.558Z,17.50
2018-06-04T04:11:57.885Z,17.50
2018-06-04T04:14:26.308Z,17.40
2018-06-04T04:16:54.804Z,17.40
2018-06-04T04:19:23.382Z,17.50
2018-06-04T04:21:51.987Z,17.40
2018-06-04T04:24:20.407Z,17.40
2018-06-04T04:26:48.884Z,17.30
2018-06-04T04:29:17.304Z,17.30
2018-06-04T04:31:45.698Z,17.30
2018-06-04T04:34:14.021Z,17.30
2018-06-04T04:36:42.463Z,17.30
2018-06-04T04:39:10.870Z,17.30
2018-06-04T04:41:39.345Z,17.40
2018-06-04T04:44:07.726Z,17.30
2018-06-04T04:46:36.768Z,17.30
2018-06-04T04:49:05.447Z,17.30
2018-06-04T04:51:33.915Z,17.40
2018-06-04T04:54:02.464Z,17.40
2018-06-04T04:56:30.836Z,17.40
2018-06-04T04:58:59.236Z,17.40
2018-06-04T05:01:27.827Z,17.40
2018-06-04T05:03:56.378Z,17.50
2018-06-04T05:06:24.833Z,17.50
2018-06-04T05:08:53.321Z,17.60
2018-06-04T05:13:49.913Z,17.70
2018-06-04T05:16:18.317Z,17.80
2018-06-04T05:18:46.908Z,17.90
2018-06-04T05:21:15.233Z,18.00
2018-06-04T05:23:43.679Z,18.20
2018-06-04T05:26:12.003Z,18.40
2018-06-04T05:28:40.484Z,18.50
2018-06-04T05:31:08.918Z,18.50
2018-06-04T05:33:37.429Z,18.70
2018-06-04T05:36:05.820Z,18.70
2018-06-04T05:38:34.227Z,18.80
2018-06-04T05:41:02.678Z,18.90
2018-06-04T05:43:31.196Z,18.90
2018-06-04T05:45:59.729Z,19.00
2018-06-04T05:48:28.172Z,19.20
2018-06-04T05:50:56.533Z,19.30
2018-06-04T05:53:24.893Z,19.30
2018-06-04T05:55:53.382Z,19.10
2018-06-04T05:58:21.819Z,19.10
2018-06-04T06:00:50.225Z,19.10
2018-06-04T06:03:18.550Z,19.00
2018-06-04T06:05:46.911Z,19.00
2018-06-04T06:08:15.409Z,18.90
2018-06-04T06:10:43.902Z,18.90
2018-06-04T06:13:12.324Z,18.80
2018-06-04T06:15:40.779Z,18.90
2018-06-04T06:18:09.255Z,19.00
2018-06-04T06:20:37.720Z,19.00
2018-06-04T06:23:06.281Z,19.10
2018-06-04T06:25:34.865Z,19.20
2018-06-04T06:28:03.245Z,19.30
2018-06-04T06:30:31.751Z,19.30
2018-06-04T06:33:00.414Z,19.40
2018-06-04T06:35:28.993Z,19.60
2018-06-04T06:37:57.485Z,19.50
2018-06-04T06:40:26.590Z,19.60
2018-06-04T06:42:55.062Z,19.70
2018-06-04T06:45:23.548Z,19.90
2018-06-04T06:47:51.970Z,20.10
2018-06-04T06:50:20.414Z,20.20
2018-06-04T06:52:48.826Z,20.20
2018-06-04T06:55:17.234Z,20.30
2018-06-04T06:57:45.631Z,20.30
2018-06-04T07:00:14.677Z,20.50
2018-06-04T07:02:43.044Z,20.60
2018-06-04T07:05:11.508Z,20.70
2018-06-04T07:07:40.046Z,20.80
2018-06-04T07:10:08.456Z,21.10
2018-06-04T07:12:36.949Z,21.20
2018-06-04T07:15:05.361Z,21.20
2018-06-04T07:17:33.898Z,21.40
2018-06-04T07:20:02.387Z,21.40
2018-06-04T07:22:30.923Z,21.40
2018-06-04T07:24:59.444Z,21.50
2018-06-04T07:27:27.887Z,21.40
2018-06-04T07:29:56.348Z,21.30
2018-06-04T07:32:24.827Z,21.30
2018-06-04T07:34:53.382Z,21.40
2018-06-04T07:37:21.900Z,21.40
2018-06-04T07:39:50.302Z,21.50
2018-06-04T07:42:18.725Z,21.50
2018-06-04T07:44:53.475Z,21.60
2018-06-04T07:47:21.853Z,21.60
2018-06-04T07:49:50.432Z,21.70
2018-06-04T07:52:18.858Z,21.90
2018-06-04T07:54:47.328Z,21.90
2018-06-04T07:57:15.898Z,21.90
2018-06-04T07:59:44.391Z,22.00
2018-06-04T08:02:12.765Z,22.00
2018-06-04T08:04:41.306Z,22.00
2018-06-04T08:07:09.742Z,22.20
2018-06-04T08:09:38.094Z,22.20
2018-06-04T08:12:06.600Z,22.30
2018-06-04T08:14:35.084Z,22.30
2018-06-04T08:17:03.514Z,22.30
2018-06-04T08:19:31.945Z,22.30
2018-06-04T08:22:03.352Z,22.30
2018-06-04T08:24:31.871Z,22.40
2018-06-04T08:27:00.254Z,22.40
2018-06-04T08:29:28.977Z,22.50
2018-06-04T08:31:57.457Z,22.50
2018-06-04T08:34:25.929Z,22.50
2018-06-04T08:36:54.340Z,22.70
2018-06-04T08:39:22.780Z,22.80
2018-06-04T08:41:51.246Z,22.80
2018-06-04T08:44:19.614Z,22.90
2018-06-04T08:46:47.948Z,22.90
2018-06-04T08:49:16.304Z,23.10
2018-06-04T08:51:45.104Z,23.20
2018-06-04T08:54:13.514Z,23.30
2018-06-04T08:56:42.036Z,23.30
2018-06-04T08:59:10.764Z,23.40
2018-06-04T09:01:39.234Z,23.50
2018-06-04T09:04:07.753Z,23.60
2018-06-04T09:06:36.223Z,23.60
2018-06-04T09:09:06.511Z,23.60
2018-06-04T09:11:35.016Z,23.60
2018-06-04T09:14:03.541Z,23.70
2018-06-04T09:16:32.153Z,23.70
2018-06-04T09:19:00.578Z,23.70
2018-06-04T09:21:29.047Z,23.70
2018-06-04T09:23:57.395Z,23.70
2018-06-04T09:26:25.864Z,23.80
2018-06-04T09:28:54.193Z,23.70
2018-06-04T09:31:22.609Z,23.80
2018-06-04T09:33:51.176Z,23.80
2018-06-04T09:36:20.176Z,23.80
2018-06-04T09:38:48.706Z,23.90
2018-06-04T09:41:17.122Z,24.10
2018-06-04T09:43:46.101Z,24.20
2018-06-04T09:46:14.701Z,24.30
2018-06-04T09:48:43.226Z,24.30
2018-06-04T09:51:11.867Z,24.30
2018-06-04T09:53:40.350Z,24.40
2018-06-04T09:56:08.727Z,24.40
2018-06-04T09:58:37.270Z,24.50
2018-06-04T10:01:05.647Z,24.60
2018-06-04T10:03:34.068Z,24.70
2018-06-04T10:06:02.495Z,24.70
2018-06-04T10:08:30.892Z,24.70
2018-06-04T10:10:59.539Z,24.70
2018-06-04T10:13:27.918Z,24.80
2018-06-04T10:15:56.508Z,24.90
2018-06-04T10:18:25.017Z,25.00
2018-06-04T10:20:53.552Z,25.00
2018-06-04T10:23:22.060Z,25.20
2018-06-04T10:25:50.585Z,25.10
2018-06-04T10:30:47.342Z,25.10
2018-06-04T10:33:15.918Z,25.20
2018-06-04T10:35:44.376Z,25.20
2018-06-04T10:38:12.868Z,25.20
2018-06-04T10:40:41.335Z,25.20
2018-06-04T10:43:09.728Z,25.40
2018-06-04T10:45:38.321Z,25.40
2018-06-04T10:48:07.400Z,25.60
2018-06-04T10:50:35.797Z,25.60
2018-06-04T10:53:04.427Z,25.70
2018-06-04T10:55:32.847Z,25.90
2018-06-04T10:58:01.295Z,25.90
2018-06-04T11:00:29.745Z,25.70
2018-06-04T11:02:58.475Z,25.70
2018-06-04T11:05:26.960Z,25.80
2018-06-04T11:07:55.426Z,25.90
2018-06-04T11:10:23.897Z,26.00
2018-06-04T11:12:52.359Z,26.10
2018-06-04T11:15:20.872Z,26.20
2018-06-04T11:17:49.308Z,26.20
2018-06-04T11:20:17.780Z,26.30
2018-06-04T11:22:46.504Z,26.30
2018-06-04T11:25:14.956Z,26.40
2018-06-04T11:27:43.464Z,26.60
2018-06-04T11:30:11.889Z,26.60
2018-06-04T11:32:40.372Z,26.60
2018-06-04T11:35:09.171Z,26.50
2018-06-04T11:37:38.111Z,26.50
2018-06-04T11:40:06.558Z,26.60
2018-06-04T11:42:35.083Z,26.70
2018-06-04T11:45:03.674Z,26.60
2018-06-04T11:47:32.130Z,26.70
2018-06-04T11:50:00.620Z,26.70
2018-06-04T11:52:29.048Z,26.90
2018-06-04T11:54:57.383Z,26.90
2018-06-04T11:57:25.826Z,27.20
2018-06-04T11:59:54.175Z,27.30
2018-06-04T12:02:22.585Z,27.50
2018-06-04T12:04:50.934Z,27.60
2018-06-04T12:07:19.387Z,27.80
2018-06-04T12:09:48.313Z,27.90
2018-06-04T12:12:16.722Z,27.90
2018-06-04T12:14:45.148Z,28.00
2018-06-04T12:17:13.768Z,28.20
2018-06-04T12:19:42.144Z,28.40
2018-06-04T12:22:10.635Z,28.50
2018-06-04T12:24:39.099Z,28.70
2018-06-04T12:27:07.607Z,28.70
2018-06-04T12:29:36.230Z,28.80
2018-06-04T12:32:04.846Z,28.90
2018-06-04T12:34:33.925Z,28.80
2018-06-04T12:37:02.333Z,28.70
2018-06-04T12:39:30.856Z,28.60
2018-06-04T12:41:59.324Z,28.60
2018-06-04T12:44:27.824Z,28.60
2018-06-04T12:46:56.251Z,28.50
2018-06-04T12:49:24.743Z,28.50
2018-06-04T12:52:56.412Z,28.50
2018-06-04T12:55:24.943Z,28.70
2018-06-04T12:57:54.464Z,28.50
2018-06-04T13:00:22.900Z,28.70
2018-06-04T13:02:51.355Z,28.70
2018-06-04T13:05:19.852Z,28.60
2018-06-04T13:07:48.348Z,28.80
2018-06-04T13:10:16.795Z,29.00
2018-06-04T13:12:45.315Z,29.00
2018-06-04T13:15:13.832Z,28.80
2018-06-04T13:17:42.372Z,28.60
2018-06-04T13:20:10.842Z,28.70
2018-06-04T13:22:39.378Z,28.90
2018-06-04T13:25:07.807Z,29.10
2018-06-04T13:27:37.206Z,29.30
2018-06-04T13:30:05.732Z,29.30
2018-06-04T13:32:34.254Z,29.40
2018-06-04T13:35:03.362Z,29.70
2018-06-04T13:37:31.917Z,29.90
2018-06-04T13:40:00.557Z,29.80
2018-06-04T13:42:29.200Z,29.60
2018-06-04T13:44:57.647Z,29.70
2018-06-04T13:47:26.182Z,30.00
2018-06-04T13:49:54.650Z,30.10
2018-06-04T13:52:23.245Z,30.10
2018-06-04T13:54:51.828Z,30.10
2018-06-04T13:57:20.447Z,30.10
2018-06-04T13:59:48.941Z,30.20
2018-06-04T14:02:17.479Z,30.30
2018-06-04T14:04:45.845Z,30.30
2018-06-04T14:07:14.261Z,30.30
2018-06-04T14:09:42.712Z,30.60
2018-06-04T14:12:11.273Z,30.50
2018-06-04T14:14:39.620Z,30.30
2018-06-04T14:17:08.041Z,30.10
2018-06-04T14:19:36.523Z,29.80
2018-06-04T14:22:05.142Z,29.60
2018-06-04T14:24:33.636Z,29.30
2018-06-04T14:27:02.072Z,28.80
2018-06-04T14:29:30.511Z,28.30
2018-06-04T14:31:58.890Z,27.70
2018-06-04T14:34:27.294Z,27.20
2018-06-04T14:36:55.649Z,26.90
2018-06-04T14:39:24.008Z,26.60
2018-06-04T14:41:52.392Z,26.40
2018-06-04T14:44:20.886Z,26.10
2018-06-04T14:46:49.360Z,25.80
2018-06-04T14:49:17.778Z,25.80
2018-06-04T14:51:46.580Z,26.00
2018-06-04T14:54:14.972Z,26.40
2018-06-04T14:56:43.318Z,26.80
2018-06-04T14:59:11.738Z,27.20
2018-06-04T15:01:40.064Z,27.60
2018-06-04T15:04:08.388Z,28.00
2018-06-04T15:06:36.982Z,28.50
2018-06-04T15:09:07.887Z,28.90
2018-06-04T15:11:36.536Z,29.30
2018-06-04T15:14:04.842Z,29.70
2018-06-04T15:16:33.654Z,29.90
2018-06-04T15:19:02.012Z,30.10
2018-06-04T15:23:58.431Z,29.70
2018-06-04T15:26:26.752Z,29.70
2018-06-04T15:28:55.106Z,29.30
2018-06-04T15:31:23.503Z,29.00
2018-06-04T15:33:51.858Z,28.90
2018-06-04T15:36:20.182Z,28.90
2018-06-04T15:38:48.625Z,28.90
2018-06-04T15:41:17.017Z,29.10
2018-06-04T15:43:45.384Z,29.00
2018-06-04T15:46:13.718Z,28.90
2018-06-04T15:48:42.113Z,28.80
2018-06-04T15:51:10.559Z,28.50
2018-06-04T15:53:38.875Z,28.10
2018-06-04T15:56:07.257Z,27.90
2018-06-04T15:58:35.882Z,27.80
2018-06-04T16:01:04.239Z,27.60
2018-06-04T16:03:32.574Z,27.20
2018-06-04T16:06:00.985Z,26.90
2018-06-04T16:08:29.316Z,26.80
2018-06-04T16:10:57.686Z,26.60
2018-06-04T16:13:26.086Z,26.20
2018-06-04T16:15:54.492Z,26.00
2018-06-04T16:18:23.036Z,26.00
2018-06-04T16:20:51.523Z,25.90
2018-06-04T16:23:22.985Z,25.80
2018-06-04T16:25:51.392Z,25.70
2018-06-04T16:28:19.938Z,25.60
2018-06-04T16:30:48.438Z,25.50
2018-06-04T16:33:16.823Z,25.60
2018-06-04T16:35:45.168Z,25.50
2018-06-04T16:38:13.624Z,25.40
2018-06-04T16:40:41.952Z,25.30
2018-06-04T16:43:10.466Z,25.20
2018-06-04T16:45:38.937Z,25.20
2018-06-04T16:48:07.306Z,25.00
2018-06-04T16:50:35.883Z,25.00
2018-06-04T16:53:04.189Z,25.00
2018-06-04T16:55:32.583Z,24.90
2018-06-04T16:58:01.122Z,24.90
2018-06-04T17:00:29.521Z,24.70
2018-06-04T17:02:58.035Z,24.70
2018-06-04T17:05:26.500Z,24.60
2018-06-04T17:07:54.958Z,24.50
2018-06-04T17:10:23.457Z,24.50
2018-06-04T17:12:51.887Z,24.30
2018-06-04T17:15:20.513Z,24.20
2018-06-04T17:17:49.043Z,24.20
2018-06-04T17:20:17.429Z,24.00
2018-06-04T17:22:45.777Z,24.00
2018-06-04T17:25:14.089Z,23.90
2018-06-04T17:27:42.506Z,23.70
2018-06-04T17:30:10.846Z,23.60
2018-06-04T17:32:39.282Z,23.40
2018-06-04T17:35:07.669Z,23.30
2018-06-04T17:37:36.040Z,23.30
2018-06-04T17:40:04.448Z,23.30
2018-06-04T17:42:32.735Z,23.20
2018-06-04T17:45:01.313Z,23.10
2018-06-04T17:47:29.667Z,23.10
2018-06-04T17:49:58.120Z,23.00
2018-06-04T17:52:26.456Z,22.80
2018-06-04T17:54:54.823Z,22.70
2018-06-04T17:57:23.204Z,22.70
2018-06-04T17:59:51.710Z,22.60
2018-06-04T18:02:20.190Z,22.60
2018-06-04T18:04:48.656Z,22.60
2018-06-04T18:07:17.101Z,22.50
2018-06-04T18:09:45.440Z,22.40
2018-06-04T18:12:13.767Z,22.50
2018-06-04T18:14:42.285Z,22.50
2018-06-04T18:17:10.679Z,22.30
2018-06-04T18:19:39.114Z,22.20
2018-06-04T18:22:07.493Z,22.20
2018-06-04T18:24:35.958Z,22.20
2018-06-04T18:27:04.391Z,22.20
2018-06-04T18:29:32.785Z,22.20
2018-06-04T18:32:01.179Z,22.20
2018-06-04T18:34:29.578Z,22.10
2018-06-04T18:36:57.960Z,22.00
2018-06-04T18:39:26.356Z,21.90
2018-06-04T18:41:54.816Z,21.90
2018-06-04T18:44:23.255Z,21.90
2018-06-04T18:46:51.636Z,21.90
2018-06-04T18:49:20.016Z,21.80
2018-06-04T18:51:48.530Z,21.80
2018-06-04T18:54:16.820Z,21.80
2018-06-04T18:56:45.199Z,21.80
2018-06-04T18:59:13.648Z,21.90
2018-06-04T19:01:41.987Z,21.80
2018-06-04T19:06:38.738Z,21.80
2018-06-04T19:09:09.378Z,21.80
2018-06-04T19:11:38.007Z,21.80
2018-06-04T19:14:06.376Z,21.70
2018-06-04T19:16:35.038Z,21.70
2018-06-04T19:19:03.442Z,21.70
2018-06-04T19:21:31.772Z,21.70
2018-06-04T19:24:00.211Z,21.70
2018-06-04T19:26:28.558Z,21.60
2018-06-04T19:28:56.984Z,21.50
2018-06-04T19:31:25.346Z,21.40
2018-06-04T19:33:53.730Z,21.50
2018-06-04T19:36:22.148Z,21.50
2018-06-04T19:38:50.502Z,21.50
2018-06-04T19:41:18.900Z,21.30
2018-06-04T19:43:47.212Z,21.30
2018-06-04T19:46:15.581Z,21.30
2018-06-04T19:48:43.926Z,21.20
2018-06-04T19:51:12.382Z,21.20
2018-06-04T19:53:41.195Z,21.20
2018-06-04T19:56:09.644Z,21.20
2018-06-04T19:58:38.145Z,21.20
2018-06-04T20:01:06.662Z,21.00
2018-06-04T20:03:35.008Z,20.80
2018-06-04T20:06:03.418Z,20.60
2018-06-04T20:08:32.040Z,20.50
2018-06-04T20:11:00.454Z,20.30
2018-06-04T20:13:29.334Z,20.20
2018-06-04T20:15:57.707Z,20.10
2018-06-04T20:18:26.164Z,20.00
2018-06-04T20:20:54.683Z,19.90
2018-06-04T20:23:23.066Z,19.70
2018-06-04T20:25:51.643Z,19.60
2018-06-04T20:28:20.130Z,19.50
2018-06-04T20:30:48.558Z,19.50
2018-06-04T20:33:17.070Z,19.40
2018-06-04T20:38:13.580Z,19.30
2018-06-04T20:40:42.017Z,19.20
2018-06-04T20:43:10.577Z,19.10
2018-06-04T20:45:38.883Z,19.10
2018-06-04T20:48:07.270Z,18.90
2018-06-04T20:50:35.664Z,18.90
2018-06-04T20:53:04.091Z,19.00
2018-06-04T20:55:32.470Z,18.90
2018-06-04T20:58:00.847Z,18.80
2018-06-04T21:00:29.271Z,18.70
2018-06-04T21:02:57.690Z,18.70
2018-06-04T21:05:26.061Z,18.70
2018-06-04T21:07:54.459Z,18.60
2018-06-04T21:10:22.822Z,18.60
2018-06-04T21:12:51.222Z,18.50
2018-06-04T21:15:19.640Z,18.50
2018-06-04T21:17:48.007Z,18.40
2018-06-04T21:20:16.359Z,18.30
2018-06-04T21:22:44.819Z,18.30
2018-06-04T21:25:13.246Z,18.30
2018-06-04T21:27:41.619Z,18.30
2018-06-04T21:30:10.081Z,18.30
2018-06-04T21:32:42.295Z,18.30
2018-06-04T21:35:10.684Z,18.30
2018-06-04T21:37:39.024Z,18.30
2018-06-04T21:40:07.472Z,18.30
2018-06-04T21:42:35.984Z,18.40
2018-06-04T21:45:04.430Z,18.30
2018-06-04T21:47:32.882Z,18.20
2018-06-04T21:50:01.336Z,18.20
2018-06-04T21:52:29.667Z,18.20
2018-06-04T21:54:58.007Z,18.10
2018-06-04T21:57:26.492Z,18.10
2018-06-04T21:59:54.879Z,18.10
2018-06-04T22:02:23.343Z,18.10
2018-06-04T22:04:51.761Z,18.10
2018-06-04T22:07:20.165Z,18.00
2018-06-04T22:12:16.774Z,18.10
2018-06-04T22:14:45.150Z,18.00
2018-06-04T22:17:13.517Z,18.00
2018-06-04T22:19:41.897Z,18.00
2018-06-04T22:22:10.241Z,17.90
2018-06-04T22:24:38.615Z,18.00
2018-06-04T22:27:07.073Z,17.90
2018-06-04T22:29:35.377Z,17.90
2018-06-04T22:32:03.882Z,17.90
2018-06-04T22:34:32.397Z,18.00
2018-06-04T22:37:00.791Z,17.90
2018-06-04T22:39:29.139Z,17.90
2018-06-04T22:41:57.564Z,17.90
2018-06-04T22:44:25.970Z,17.90
2018-06-04T22:46:54.342Z,17.80
2018-06-04T22:49:23.223Z,17.70
2018-06-04T22:51:51.678Z,17.70
2018-06-04T22:54:20.052Z,17.70
2018-06-04T22:56:48.465Z,17.70
2018-06-04T22:59:16.800Z,17.80
2018-06-04T23:01:45.161Z,17.70
2018-06-04T23:04:13.605Z,17.70
2018-06-04T23:06:41.987Z,17.70
2018-06-04T23:09:10.449Z,17.70
2018-06-04T23:11:38.852Z,17.70
2018-06-04T23:14:07.240Z,17.60
2018-06-04T23:16:35.603Z,17.70
2018-06-04T23:19:03.983Z,17.70
2018-06-04T23:21:32.316Z,17.60
2018-06-04T23:24:01.079Z,17.60
2018-06-04T23:26:29.493Z,17.60
2018-06-04T23:28:57.831Z,17.50
2018-06-04T23:31:26.175Z,17.40
2018-06-04T23:33:54.509Z,17.30
2018-06-04T23:36:22.886Z,17.30
2018-06-04T23:38:51.256Z,17.30
2018-06-04T23:41:19.623Z,17.20
2018-06-04T23:43:48.024Z,17.30
2018-06-04T23:46:16.415Z,17.30
2018-06-04T23:48:44.764Z,17.30
2018-06-04T23:51:13.073Z,17.30
2018-06-04T23:53:41.444Z,17.40
2018-06-04T23:56:09.866Z,17.30
2018-06-04T23:58:38.331Z,17.40
